createdAt,value
2018-08-04T00:01:17.801Z,98431.78
2018-08-04T00:03:46.608Z,98430.86
2018-08-04T00:06:15.084Z,98426.13
2018-08-04T00:08:43.531Z,98427.47
2018-08-04T00:11:11.995Z,98432.83
2018-08-04T00:13:40.519Z,98434.81
2018-08-04T00:16:09.210Z,98436.37
2018-08-04T00:18:37.638Z,98435.94
2018-08-04T00:21:06.306Z,98431.68
2018-08-04T00:23:34.970Z,98427.02
2018-08-04T00:26:03.386Z,98428.95
2018-08-04T00:28:31.839Z,98431.12
2018-08-04T00:31:00.338Z,98431.33
2018-08-04T00:33:28.959Z,98430.28
2018-08-04T00:35:57.428Z,98428.11
2018-08-04T00:38:25.894Z,98418.72
2018-08-04T00:40:54.335Z,98415.81
2018-08-04T00:43:22.780Z,98410.23
2018-08-04T00:45:51.324Z,98412.30
2018-08-04T00:48:19.821Z,98409.95
2018-08-04T00:50:48.310Z,98405.23
2018-08-04T00:53:16.791Z,98402.07
2018-08-04T00:55:45.252Z,98399.39
2018-08-04T00:58:13.685Z,98405.28
2018-08-04T01:00:42.171Z,98406.94
2018-08-04T01:03:10.657Z,98398.63
2018-08-04T01:05:39.303Z,98395.66
2018-08-04T01:08:07.781Z,98398.98
2018-08-04T01:10:36.265Z,98397.35
2018-08-04T01:16:36.068Z,98396.06
2018-08-04T01:19:04.576Z,98393.72
2018-08-04T01:21:33.019Z,98400.08
2018-08-04T01:24:01.520Z,98397.75
2018-08-04T01:26:29.980Z,98401.13
2018-08-04T01:28:58.577Z,98399.78
2018-08-04T01:31:27.122Z,98394.58
2018-08-04T01:33:55.607Z,98395.41
2018-08-04T01:36:24.053Z,98397.79
2018-08-04T01:38:52.471Z,98393.93
2018-08-04T01:41:21.172Z,98392.14
2018-08-04T01:43:49.616Z,98388.43
2018-08-04T01:46:18.069Z,98393.94
2018-08-04T01:48:46.542Z,98398.30
2018-08-04T01:51:15.009Z,98400.47
2018-08-04T01:53:43.502Z,98405.88
2018-08-04T01:56:11.923Z,98397.88
2018-08-04T01:58:40.361Z,98394.86
2018-08-04T02:01:08.888Z,98390.92
2018-08-04T02:03:37.351Z,98394.91
2018-08-04T02:06:06.215Z,98395.94
2018-08-04T02:08:34.721Z,98395.94
2018-08-04T02:11:03.973Z,98396.28
2018-08-04T02:16:31.311Z,98394.28
2018-08-04T02:19:00.173Z,98400.45
2018-08-04T02:21:28.606Z,98393.78
2018-08-04T02:23:57.064Z,98396.47
2018-08-04T02:26:25.512Z,98399.35
2018-08-04T02:28:53.955Z,98395.47
2018-08-04T02:31:22.429Z,98399.33
2018-08-04T02:33:50.924Z,98393.48
2018-08-04T02:36:19.343Z,98389.64
2018-08-04T02:38:47.791Z,98391.53
2018-08-04T02:41:16.234Z,98393.78
2018-08-04T02:43:44.735Z,98396.52
2018-08-04T02:46:13.260Z,98393.69
2018-08-04T02:48:41.870Z,98392.00
2018-08-04T02:51:10.358Z,98396.03
2018-08-04T02:53:38.833Z,98393.67
2018-08-04T02:56:08.000Z,98397.55
2018-08-04T02:58:36.475Z,98396.23
2018-08-04T03:01:04.945Z,98400.41
2018-08-04T03:03:33.394Z,98406.91
2018-08-04T03:06:01.884Z,98402.44
2018-08-04T03:08:30.358Z,98403.42
2018-08-04T03:10:58.855Z,98403.08
2018-08-04T03:13:27.315Z,98398.41
2018-08-04T03:15:55.923Z,98404.09
2018-08-04T03:18:24.415Z,98408.11
2018-08-04T03:20:52.887Z,98406.11
2018-08-04T03:23:21.687Z,98414.08
2018-08-04T03:25:50.095Z,98409.42
2018-08-04T03:28:18.639Z,98409.76
2018-08-04T03:30:47.132Z,98409.75
2018-08-04T03:33:15.575Z,98415.44
2018-08-04T03:35:44.251Z,98418.10
2018-08-04T03:38:13.117Z,98406.59
2018-08-04T03:40:41.604Z,98409.44
2018-08-04T03:43:10.018Z,98416.75
2018-08-04T03:45:38.472Z,98413.75
2018-08-04T03:48:06.951Z,98415.09
2018-08-04T03:50:35.413Z,98419.27
2018-08-04T03:53:04.752Z,98416.76
2018-08-04T03:55:33.233Z,98420.48
2018-08-04T03:58:01.690Z,98414.12
2018-08-04T04:00:30.143Z,98415.11
2018-08-04T04:02:58.575Z,98425.97
2018-08-04T04:05:27.391Z,98423.45
2018-08-04T04:07:55.873Z,98419.48
2018-08-04T04:10:24.324Z,98425.63
2018-08-04T04:12:52.799Z,98419.77
2018-08-04T04:15:21.328Z,98424.14
2018-08-04T04:17:50.068Z,98424.66
2018-08-04T04:20:19.701Z,98420.62
2018-08-04T04:22:48.882Z,98430.83
2018-08-04T04:25:17.388Z,98430.48
2018-08-04T04:27:45.835Z,98425.64
2018-08-04T04:30:15.277Z,98433.17
2018-08-04T04:32:43.716Z,98430.30
2018-08-04T04:35:12.216Z,98433.16
2018-08-04T04:41:11.780Z,98437.13
2018-08-04T04:43:40.590Z,98437.77
2018-08-04T04:46:09.079Z,98440.26
2018-08-04T04:48:37.602Z,98442.64
2018-08-04T04:51:05.986Z,98444.19
2018-08-04T04:53:34.427Z,98437.84
2018-08-04T04:56:02.889Z,98444.17
2018-08-04T04:58:31.375Z,98446.02
2018-08-04T05:00:59.846Z,98443.48
2018-08-04T05:03:28.275Z,98439.10
2018-08-04T05:05:56.795Z,98432.88
2018-08-04T05:08:25.681Z,98446.77
2018-08-04T05:10:54.083Z,98436.90
2018-08-04T05:13:22.581Z,98435.30
2018-08-04T05:15:51.035Z,98435.30
2018-08-04T05:18:19.459Z,98437.89
2018-08-04T05:20:47.916Z,98442.94
2018-08-04T05:23:16.408Z,98438.58
2018-08-04T05:25:44.907Z,98442.98
2018-08-04T05:28:13.357Z,98446.16
2018-08-04T05:30:41.888Z,98442.77
2018-08-04T05:33:10.365Z,98440.87
2018-08-04T05:35:38.848Z,98449.09
2018-08-04T05:38:07.600Z,98451.58
2018-08-04T05:40:36.068Z,98455.53
2018-08-04T05:43:04.527Z,98450.66
2018-08-04T05:45:32.986Z,98447.72
2018-08-04T05:48:01.501Z,98449.62
2018-08-04T05:50:30.022Z,98450.97
2018-08-04T05:52:58.568Z,98450.89
2018-08-04T05:55:26.985Z,98447.06
2018-08-04T05:57:55.470Z,98446.99
2018-08-04T06:00:23.967Z,98452.16
2018-08-04T06:02:52.397Z,98448.33
2018-08-04T06:05:20.862Z,98448.06
2018-08-04T06:07:49.824Z,98445.70
2018-08-04T06:10:18.327Z,98449.63
2018-08-04T06:12:46.770Z,98445.33
2018-08-04T06:15:15.227Z,98442.44
2018-08-04T06:17:43.966Z,98442.62
2018-08-04T06:20:12.651Z,98441.34
2018-08-04T06:22:41.250Z,98440.94
2018-08-04T06:25:09.696Z,98441.41
2018-08-04T06:27:38.131Z,98439.27
2018-08-04T06:30:08.447Z,98438.31
2018-08-04T06:32:36.851Z,98442.27
2018-08-04T06:35:05.379Z,98445.22
2018-08-04T06:37:33.988Z,98443.53
2018-08-04T06:40:02.428Z,98441.88
2018-08-04T06:42:30.860Z,98441.55
2018-08-04T06:44:59.313Z,98437.95
2018-08-04T06:47:27.814Z,98436.81
2018-08-04T06:49:56.278Z,98430.09
2018-08-04T06:52:24.771Z,98435.80
2018-08-04T06:54:53.338Z,98441.02
2018-08-04T06:57:21.880Z,98437.97
2018-08-04T06:59:50.284Z,98423.37
2018-08-04T07:02:18.816Z,98437.70
2018-08-04T07:04:47.284Z,98440.02
2018-08-04T07:07:15.712Z,98431.42
2018-08-04T07:09:44.166Z,98437.41
2018-08-04T07:12:12.688Z,98431.87
2018-08-04T07:14:42.231Z,98429.11
2018-08-04T07:17:10.949Z,98424.70
2018-08-04T07:19:39.379Z,98426.34
2018-08-04T07:22:07.769Z,98426.22
2018-08-04T07:24:36.238Z,98427.23
2018-08-04T07:27:04.714Z,98421.19
2018-08-04T07:29:33.139Z,98423.97
2018-08-04T07:32:01.606Z,98423.37
2018-08-04T07:34:30.017Z,98419.47
2018-08-04T07:36:58.664Z,98417.58
2018-08-04T07:39:27.124Z,98421.11
2018-08-04T07:41:55.599Z,98410.84
2018-08-04T07:44:24.993Z,98414.34
2018-08-04T07:46:53.403Z,98414.75
2018-08-04T07:49:21.866Z,98407.67
2018-08-04T07:51:50.346Z,98408.70
2018-08-04T07:54:18.799Z,98415.80
2018-08-04T07:56:47.270Z,98423.23
2018-08-04T07:59:15.739Z,98420.22
2018-08-04T08:01:44.278Z,98416.63
2018-08-04T08:04:12.715Z,98416.70
2018-08-04T08:06:41.147Z,98410.14
2018-08-04T08:09:09.836Z,98411.30
2018-08-04T08:11:38.324Z,98409.61
2018-08-04T08:14:06.779Z,98407.05
2018-08-04T08:16:35.223Z,98409.11
2018-08-04T08:19:03.657Z,98407.04
2018-08-04T08:21:32.163Z,98402.16
2018-08-04T08:24:00.967Z,98403.06
2018-08-04T08:26:29.393Z,98399.72
2018-08-04T08:28:57.801Z,98405.45
2018-08-04T08:31:26.282Z,98395.16
2018-08-04T08:33:54.758Z,98399.90
2018-08-04T08:36:23.299Z,98395.98
2018-08-04T08:38:52.024Z,98395.42
2018-08-04T08:41:20.495Z,98406.35
2018-08-04T08:43:49.231Z,98399.64
2018-08-04T08:46:17.674Z,98397.98
2018-08-04T08:48:46.129Z,98397.78
2018-08-04T08:51:14.591Z,98390.41
2018-08-04T08:53:43.118Z,98398.19
2018-08-04T08:56:11.492Z,98388.88
2018-08-04T08:58:39.909Z,98387.58
2018-08-04T09:01:08.428Z,98386.70
2018-08-04T09:03:36.899Z,98386.13
2018-08-04T09:06:05.590Z,98390.27
2018-08-04T09:08:34.315Z,98386.27
2018-08-04T09:11:02.715Z,98394.20
2018-08-04T09:13:31.225Z,98386.17
2018-08-04T09:15:59.703Z,98384.70
2018-08-04T09:18:28.372Z,98375.15
2018-08-04T09:20:57.779Z,98375.15
2018-08-04T09:23:26.572Z,98374.37
2018-08-04T09:25:55.031Z,98381.27
2018-08-04T09:28:23.490Z,98374.48
2018-08-04T09:30:51.946Z,98351.25
2018-08-04T09:33:20.414Z,98374.72
2018-08-04T09:35:48.854Z,98371.89
2018-08-04T09:38:17.294Z,98371.39
2018-08-04T09:40:46.002Z,98376.58
2018-08-04T09:43:14.448Z,98377.56
2018-08-04T09:45:42.883Z,98370.53
2018-08-04T09:48:11.473Z,98365.03
2018-08-04T09:50:39.985Z,98368.03
2018-08-04T09:53:08.651Z,98361.23
2018-08-04T09:55:37.220Z,98361.86
2018-08-04T09:58:06.042Z,98355.27
2018-08-04T10:00:39.640Z,98368.10
2018-08-04T10:03:08.183Z,98357.23
2018-08-04T10:05:36.708Z,98360.46
2018-08-04T10:08:05.143Z,98352.28
2018-08-04T10:10:33.608Z,98350.32
2018-08-04T10:13:02.033Z,98354.11
2018-08-04T10:15:30.476Z,98341.11
2018-08-04T10:17:58.958Z,98357.22
2018-08-04T10:20:27.428Z,98350.14
2018-08-04T10:22:55.925Z,98350.83
2018-08-04T10:25:24.567Z,98351.73
2018-08-04T10:27:53.037Z,98350.70
2018-08-04T10:30:21.631Z,98354.45
2018-08-04T10:32:50.113Z,98352.79
2018-08-04T10:35:18.520Z,98352.59
2018-08-04T10:37:47.063Z,98347.02
2018-08-04T10:40:15.515Z,98347.61
2018-08-04T10:42:44.061Z,98338.58
2018-08-04T10:45:12.540Z,98339.63
2018-08-04T10:47:40.992Z,98336.22
2018-08-04T10:50:09.512Z,98327.77
2018-08-04T10:52:38.313Z,98325.77
2018-08-04T10:55:06.772Z,98324.74
2018-08-04T10:57:35.213Z,98331.83
2018-08-04T11:00:04.018Z,98325.03
2018-08-04T11:02:32.471Z,98322.73
2018-08-04T11:05:00.900Z,98327.05
2018-08-04T11:07:29.388Z,98316.26
2018-08-04T11:09:57.801Z,98310.47
2018-08-04T11:12:26.461Z,98313.82
2018-08-04T11:14:54.832Z,98307.47
2018-08-04T11:17:23.888Z,98306.39
2018-08-04T11:19:52.338Z,98298.22
2018-08-04T11:22:20.756Z,98295.25
2018-08-04T11:24:49.427Z,98290.34
2018-08-04T11:27:17.831Z,98290.03
2018-08-04T11:29:46.378Z,98286.91
2018-08-04T11:32:14.976Z,98286.45
2018-08-04T11:34:43.527Z,98286.95
2018-08-04T11:37:12.246Z,98280.40
2018-08-04T11:39:40.664Z,98277.45
2018-08-04T11:42:09.266Z,98277.48
2018-08-04T11:44:37.997Z,98274.80
2018-08-04T11:47:06.867Z,98270.77
2018-08-04T11:49:35.283Z,98279.64
2018-08-04T11:52:03.680Z,98272.05
2018-08-04T11:54:32.401Z,98270.55
2018-08-04T11:57:00.851Z,98270.63
2018-08-04T11:59:29.287Z,98266.66
2018-08-04T12:01:57.833Z,98260.11
2018-08-04T12:04:26.233Z,98266.90
2018-08-04T12:06:54.702Z,98262.48
2018-08-04T12:09:23.141Z,98261.83
2018-08-04T12:11:51.605Z,98252.42
2018-08-04T12:14:20.060Z,98251.09
2018-08-04T12:16:48.503Z,98245.31
2018-08-04T12:19:16.952Z,98241.39
2018-08-04T12:21:45.419Z,98241.16
2018-08-04T12:24:13.845Z,98233.33
2018-08-04T12:26:42.296Z,98233.98
2018-08-04T12:29:11.244Z,98230.38
2018-08-04T12:31:39.672Z,98240.95
2018-08-04T12:34:08.083Z,98232.30
2018-08-04T12:36:36.548Z,98238.02
2018-08-04T12:39:07.895Z,98236.84
2018-08-04T12:41:36.439Z,98241.48
2018-08-04T12:44:06.407Z,98238.84
2018-08-04T12:46:34.837Z,98235.78
2018-08-04T12:49:03.326Z,98238.27
2018-08-04T12:51:31.751Z,98236.50
2018-08-04T12:54:00.211Z,98229.03
2018-08-04T12:56:28.740Z,98212.31
2018-08-04T12:58:57.421Z,98221.73
2018-08-04T13:01:26.115Z,98222.11
2018-08-04T13:03:54.566Z,98214.65
2018-08-04T13:06:23.148Z,98215.34
2018-08-04T13:08:51.864Z,98202.86
2018-08-04T13:11:20.275Z,98204.89
2018-08-04T13:13:49.155Z,98201.25
2018-08-04T13:16:17.953Z,98193.28
2018-08-04T13:18:46.433Z,98198.42
2018-08-04T13:21:14.935Z,98193.23
2018-08-04T13:23:43.349Z,98179.31
2018-08-04T13:26:12.106Z,98183.73
2018-08-04T13:28:40.570Z,98148.31
2018-08-04T13:31:09.008Z,98178.08
2018-08-04T13:33:37.771Z,98177.36
2018-08-04T13:36:06.200Z,98183.58
2018-08-04T13:38:34.931Z,98183.05
2018-08-04T13:41:03.331Z,98188.39
2018-08-04T13:43:31.809Z,98190.08
2018-08-04T13:46:00.368Z,98190.31
2018-08-04T13:48:28.812Z,98192.78
2018-08-04T13:50:57.446Z,98187.30
2018-08-04T13:53:25.897Z,98177.38
2018-08-04T13:55:54.824Z,98181.61
2018-08-04T13:58:23.312Z,98179.05
2018-08-04T14:00:51.756Z,98185.09
2018-08-04T14:03:20.245Z,98188.99
2018-08-04T14:05:48.730Z,98183.75
2018-08-04T14:08:17.384Z,98177.86
2018-08-04T14:10:45.837Z,98177.61
2018-08-04T14:13:14.307Z,98178.16
2018-08-04T14:15:42.694Z,98180.94
2018-08-04T14:18:11.166Z,98184.56
2018-08-04T14:20:39.616Z,98177.03
2018-08-04T14:23:08.168Z,98166.71
2018-08-04T14:25:36.667Z,98172.53
2018-08-04T14:28:05.100Z,98167.55
2018-08-04T14:30:33.493Z,98168.71
2018-08-04T14:33:01.932Z,98161.41
2018-08-04T14:35:30.448Z,98164.17
2018-08-04T14:37:58.950Z,98165.00
2018-08-04T14:40:27.390Z,98157.65
2018-08-04T14:42:56.022Z,98159.23
2018-08-04T14:45:24.435Z,98156.92
2018-08-04T14:47:52.854Z,98167.64
2018-08-04T14:50:21.566Z,98167.38
2018-08-04T14:52:50.008Z,98180.30
2018-08-04T14:55:18.768Z,98171.85
2018-08-04T14:57:47.257Z,98187.06
2018-08-04T15:00:15.796Z,98177.72
2018-08-04T15:02:44.491Z,98177.19
2018-08-04T15:05:13.510Z,98160.33
2018-08-04T15:07:41.982Z,98164.90
2018-08-04T15:10:10.566Z,98167.83
2018-08-04T15:12:39.234Z,98166.69
2018-08-04T15:15:08.309Z,98166.44
2018-08-04T15:17:36.779Z,98174.32
2018-08-04T15:20:06.266Z,98169.88
2018-08-04T15:22:34.951Z,98166.69
2018-08-04T15:25:03.447Z,98167.20
2018-08-04T15:27:32.322Z,98164.09
2018-08-04T15:30:00.799Z,98156.17
2018-08-04T15:32:29.226Z,98157.55
2018-08-04T15:34:57.708Z,98158.95
2018-08-04T15:37:26.460Z,98154.54
2018-08-04T15:39:54.916Z,98155.27
2018-08-04T15:42:23.415Z,98156.92
2018-08-04T15:44:51.831Z,98153.84
2018-08-04T15:47:20.559Z,98158.11
2018-08-04T15:49:48.980Z,98161.08
2018-08-04T15:52:17.648Z,98150.03
2018-08-04T15:54:46.175Z,98148.84
2018-08-04T15:57:14.686Z,98149.66
2018-08-04T15:59:46.111Z,98154.54
2018-08-04T16:02:14.556Z,98155.89
2018-08-04T16:04:43.007Z,98152.91
2018-08-04T16:07:11.661Z,98160.55
2018-08-04T16:09:40.083Z,98159.27
2018-08-04T16:12:08.511Z,98160.84
2018-08-04T16:14:36.999Z,98157.16
2018-08-04T16:17:05.505Z,98163.53
2018-08-04T16:19:33.975Z,98161.18
2018-08-04T16:22:02.437Z,98164.27
2018-08-04T16:24:31.552Z,98160.78
2018-08-04T16:26:59.932Z,98164.41
2018-08-04T16:29:28.370Z,98164.84
2018-08-04T16:31:56.842Z,98167.89
2018-08-04T16:34:25.271Z,98161.25
2018-08-04T16:36:53.886Z,98165.61
2018-08-04T16:39:22.379Z,98158.83
2018-08-04T16:41:51.139Z,98161.39
2018-08-04T16:44:19.650Z,98147.69
2018-08-04T16:46:48.160Z,98159.79
2018-08-04T16:49:16.877Z,98160.14
2018-08-04T16:51:48.527Z,98154.93
2018-08-04T16:54:17.011Z,98156.09
2018-08-04T16:56:45.696Z,98153.22
2018-08-04T16:59:14.162Z,98155.34
2018-08-04T17:01:42.743Z,98152.48
2018-08-04T17:04:11.487Z,98162.55
2018-08-04T17:06:39.943Z,98161.90
2018-08-04T17:09:11.051Z,98158.06
2018-08-04T17:11:39.487Z,98154.86
2018-08-04T17:14:08.320Z,98155.33
2018-08-04T17:16:37.100Z,98155.70
2018-08-04T17:19:05.771Z,98156.92
2018-08-04T17:21:34.732Z,98150.17
2018-08-04T17:24:03.401Z,98151.22
2018-08-04T17:26:31.891Z,98150.21
2018-08-04T17:29:00.538Z,98149.36
2018-08-04T17:31:29.223Z,98149.24
2018-08-04T17:33:57.708Z,98149.91
2018-08-04T17:36:26.188Z,98148.97
2018-08-04T17:38:54.951Z,98146.14
2018-08-04T17:41:23.554Z,98150.95
2018-08-04T17:43:52.018Z,98152.57
2018-08-04T17:46:20.492Z,98149.25
2018-08-04T17:48:49.133Z,98148.94
2018-08-04T17:51:17.612Z,98144.98
2018-08-04T17:53:46.183Z,98147.70
2018-08-04T17:56:14.607Z,98146.73
2018-08-04T17:58:43.302Z,98154.06
2018-08-04T18:01:11.921Z,98153.19
2018-08-04T18:03:40.466Z,98154.87
2018-08-04T18:06:09.383Z,98155.44
2018-08-04T18:08:37.823Z,98152.72
2018-08-04T18:11:06.306Z,98154.49
2018-08-04T18:13:34.772Z,98157.91
2018-08-04T18:16:03.322Z,98161.60
2018-08-04T18:18:31.857Z,98164.84
2018-08-04T18:21:00.295Z,98169.81
2018-08-04T18:23:28.735Z,98172.11
2018-08-04T18:25:57.126Z,98164.86
2018-08-04T18:28:25.599Z,98160.68
2018-08-04T18:30:54.115Z,98158.27
2018-08-04T18:33:22.723Z,98164.39
2018-08-04T18:35:51.214Z,98161.42
2018-08-04T18:38:19.923Z,98167.15
2018-08-04T18:40:48.346Z,98168.14
2018-08-04T18:43:16.878Z,98158.30
2018-08-04T18:45:45.352Z,98163.23
2018-08-04T18:48:13.849Z,98167.02
2018-08-04T18:50:42.340Z,98170.59
2018-08-04T18:53:10.969Z,98171.95
2018-08-04T18:55:39.525Z,98175.03
2018-08-04T18:58:08.646Z,98178.14
2018-08-04T19:00:37.555Z,98184.23
2018-08-04T19:03:06.149Z,98186.55
2018-08-04T19:05:34.555Z,98183.97
2018-08-04T19:08:03.024Z,98183.62
2018-08-04T19:10:31.545Z,98190.40
2018-08-04T19:13:00.031Z,98190.50
2018-08-04T19:15:28.494Z,98194.91
2018-08-04T19:17:57.267Z,98192.97
2018-08-04T19:20:25.712Z,98193.63
2018-08-04T19:22:54.160Z,98193.27
2018-08-04T19:25:22.610Z,98202.35
2018-08-04T19:27:51.228Z,98192.41
2018-08-04T19:30:19.645Z,98187.47
2018-08-04T19:32:48.112Z,98181.44
2018-08-04T19:35:16.553Z,98189.95
2018-08-04T19:37:45.020Z,98187.23
2018-08-04T19:40:14.316Z,98187.03
2018-08-04T19:42:42.959Z,98188.54
2018-08-04T19:45:11.655Z,98188.45
2018-08-04T19:47:40.066Z,98187.37
2018-08-04T19:50:08.577Z,98185.33
2018-08-04T19:52:37.088Z,98181.95
2018-08-04T19:55:06.092Z,98189.05
2018-08-04T19:57:34.515Z,98192.17
2018-08-04T20:00:03.074Z,98194.34
2018-08-04T20:02:31.539Z,98192.09
2018-08-04T20:04:59.955Z,98193.90
2018-08-04T20:07:28.599Z,98198.33
2018-08-04T20:09:57.041Z,98197.89
2018-08-04T20:12:25.501Z,98203.41
2018-08-04T20:14:54.056Z,98202.03
2018-08-04T20:17:22.521Z,98207.39
2018-08-04T20:19:50.980Z,98209.75
2018-08-04T20:22:19.400Z,98212.14
2018-08-04T20:24:47.892Z,98213.26
2018-08-04T20:27:16.619Z,98222.05
2018-08-04T20:29:45.136Z,98213.78
2018-08-04T20:32:13.569Z,98226.70
2018-08-04T20:34:42.011Z,98230.83
2018-08-04T20:37:10.707Z,98225.08
2018-08-04T20:39:39.215Z,98229.80
2018-08-04T20:42:07.663Z,98231.67
2018-08-04T20:44:36.437Z,98234.70
2018-08-04T20:47:04.878Z,98234.90
2018-08-04T20:49:33.309Z,98235.08
2018-08-04T20:52:01.791Z,98223.06
2018-08-04T20:54:30.227Z,98223.59
2018-08-04T20:56:58.732Z,98232.87
2018-08-04T20:59:27.319Z,98228.48
2018-08-04T21:02:26.774Z,98230.08
2018-08-04T21:04:55.233Z,98229.67
2018-08-04T21:07:24.759Z,98221.02
2018-08-04T21:09:53.500Z,98224.05
2018-08-04T21:12:22.003Z,98226.27
2018-08-04T21:14:50.440Z,98227.53
2018-08-04T21:17:18.900Z,98229.33
2018-08-04T21:19:47.323Z,98219.88
2018-08-04T21:22:15.743Z,98221.22
2018-08-04T21:24:44.170Z,98214.99
2018-08-04T21:27:12.797Z,98215.91
2018-08-04T21:29:41.243Z,98216.73
2018-08-04T21:32:09.706Z,98231.77
2018-08-04T21:34:38.144Z,98221.39
2018-08-04T21:37:06.566Z,98225.97
2018-08-04T21:39:35.044Z,98223.36
2018-08-04T21:42:03.685Z,98231.44
2018-08-04T21:44:32.139Z,98232.17
2018-08-04T21:47:00.593Z,98224.19
2018-08-04T21:49:29.735Z,98223.98
2018-08-04T21:51:58.182Z,98230.30
2018-08-04T21:54:26.672Z,98232.80
2018-08-04T21:56:55.145Z,98229.97
2018-08-04T21:59:23.604Z,98230.49
2018-08-04T22:01:54.096Z,98230.93
2018-08-04T22:04:22.487Z,98229.39
2018-08-04T22:07:02.123Z,98235.77
2018-08-04T22:09:30.554Z,98235.34
2018-08-04T22:11:58.952Z,98233.59
2018-08-04T22:14:27.704Z,98234.43
2018-08-04T22:16:56.116Z,98233.30
2018-08-04T22:19:24.515Z,98234.23
2018-08-04T22:21:53.314Z,98229.55
2018-08-04T22:24:21.715Z,98231.19
2018-08-04T22:26:50.116Z,98230.61
2018-08-04T22:29:18.533Z,98233.78
2018-08-04T22:31:46.936Z,98225.00
2018-08-04T22:34:15.423Z,98221.14
2018-08-04T22:36:44.031Z,98217.51
2018-08-04T22:39:12.625Z,98217.62
2018-08-04T22:41:41.113Z,98218.20
2018-08-04T22:44:09.815Z,98231.11
2018-08-04T22:46:38.496Z,98225.05
2018-08-04T22:49:07.163Z,98238.14
2018-08-04T22:51:35.632Z,98234.94
2018-08-04T22:54:04.062Z,98235.63
2018-08-04T22:56:32.819Z,98242.05
2018-08-04T22:59:01.229Z,98235.05
2018-08-04T23:01:29.708Z,98232.75
2018-08-04T23:03:58.210Z,98236.66
2018-08-04T23:06:26.640Z,98229.70
2018-08-04T23:08:55.064Z,98241.25
2018-08-04T23:11:23.451Z,98232.41
2018-08-04T23:13:51.870Z,98228.48
2018-08-04T23:16:20.316Z,98219.16
2018-08-04T23:18:48.726Z,98217.03
2018-08-04T23:21:17.397Z,98217.48
2018-08-04T23:23:45.806Z,98220.80
2018-08-04T23:26:14.222Z,98216.70
2018-08-04T23:28:42.646Z,98213.61
2018-08-04T23:31:11.144Z,98211.34
2018-08-04T23:33:39.555Z,98207.73
2018-08-04T23:36:08.400Z,98207.16
2018-08-04T23:38:36.832Z,98224.02
2018-08-04T23:41:05.268Z,98223.12
2018-08-04T23:43:33.667Z,98215.25
2018-08-04T23:46:02.108Z,98209.63
2018-08-04T23:48:30.524Z,98213.09
2018-08-04T23:50:58.963Z,98214.38
2018-08-04T23:53:27.555Z,98209.49
2018-08-04T23:55:56.033Z,98218.16
2018-08-04T23:58:24.444Z,98215.73
